createdAt,value
2022-11-06T00:41:08.774Z,76.68
2022-11-06T00:46:05.511Z,76.86
2022-11-06T00:51:06.275Z,77.48
2022-11-06T00:56:08.507Z,77.92
2022-11-06T01:01:10.882Z,78.03
2022-11-06T01:06:07.691Z,77.99
2022-11-06T01:10:59.403Z,78.29
2022-11-06T01:15:51.003Z,78.22
2022-11-06T01:20:42.602Z,78.46
2022-11-06T01:25:34.194Z,78.77
2022-11-06T01:30:27.003Z,78.11
2022-11-06T01:35:18.582Z,78.22
2022-11-06T01:40:11.078Z,77.81
2022-11-06T01:45:16.619Z,78.11
2022-11-06T01:50:11.850Z,77.32
2022-11-06T01:55:22.798Z,77.29
2022-11-06T02:00:14.597Z,77.00
2022-11-06T02:05:06.562Z,77.25
2022-11-06T02:09:58.207Z,76.69
2022-11-06T02:15:00.727Z,77.17
2022-11-06T02:20:07.068Z,76.43
2022-11-06T02:25:39.011Z,77.02
2022-11-06T02:30:40.508Z,76.48
2022-11-06T02:35:42.945Z,77.02
2022-11-06T02:40:39.327Z,76.76
2022-11-06T02:45:37.203Z,76.54
2022-11-06T02:50:35.203Z,76.22
2022-11-06T02:55:44.057Z,76.53
2022-11-06T03:00:38.613Z,75.95
2022-11-06T03:05:37.029Z,76.89
2022-11-06T03:10:33.995Z,77.25
2022-11-06T03:15:39.720Z,77.87
2022-11-06T03:20:51.039Z,77.39
2022-11-06T03:25:54.332Z,76.93
2022-11-06T03:31:07.890Z,77.07
2022-11-06T03:36:12.489Z,76.74
2022-11-06T03:41:14.287Z,77.49
2022-11-06T03:46:11.479Z,77.77
2022-11-06T03:51:13.690Z,78.39
2022-11-06T03:56:22.895Z,78.26
2022-11-06T04:01:16.734Z,78.74
2022-11-06T04:06:20.911Z,78.39
2022-11-06T04:11:36.282Z,78.20
2022-11-06T04:16:53.707Z,78.44
2022-11-06T04:21:54.516Z,78.73
2022-11-06T04:27:20.376Z,78.02
2022-11-06T04:32:30.664Z,78.30
2022-11-06T04:37:29.261Z,78.14
2022-11-06T04:42:38.066Z,77.84
2022-11-06T04:47:30.541Z,78.31
2022-11-06T04:52:28.043Z,78.64
2022-11-06T04:57:19.749Z,78.24
2022-11-06T05:02:11.540Z,78.11
2022-11-06T05:07:03.316Z,78.13
2022-11-06T05:11:55.546Z,78.65
2022-11-06T05:16:47.138Z,78.47
2022-11-06T05:21:57.444Z,78.30
2022-11-06T05:26:49.970Z,78.66
2022-11-06T05:31:43.989Z,78.46
2022-11-06T05:36:35.648Z,78.57
2022-11-06T05:41:28.064Z,78.65
2022-11-06T05:46:42.863Z,78.54
2022-11-06T05:51:31.498Z,78.43
2022-11-06T05:56:23.133Z,78.72
2022-11-06T06:01:16.475Z,78.88
2022-11-06T06:06:08.144Z,78.95
2022-11-06T06:10:59.754Z,78.86
2022-11-06T06:15:52.501Z,79.31
2022-11-06T06:20:44.265Z,78.44
2022-11-06T06:25:35.858Z,78.77
2022-11-06T06:30:28.383Z,79.03
2022-11-06T06:35:20.057Z,78.85
2022-11-06T06:40:11.898Z,79.14
2022-11-06T06:45:03.676Z,78.22
2022-11-06T06:49:56.089Z,77.83
2022-11-06T06:54:47.658Z,77.75
2022-11-06T06:59:39.449Z,77.49
2022-11-06T07:04:31.029Z,77.10
2022-11-06T07:09:24.124Z,77.25
2022-11-06T07:14:15.765Z,77.12
2022-11-06T07:19:07.444Z,76.54
2022-11-06T07:23:59.068Z,74.38
2022-11-06T07:28:50.771Z,67.95
2022-11-06T07:33:42.377Z,64.80
2022-11-06T07:38:35.086Z,62.75
2022-11-06T07:43:27.699Z,61.53
2022-11-06T07:48:19.743Z,59.94
2022-11-06T07:53:11.970Z,59.67
2022-11-06T07:58:05.102Z,58.27
2022-11-06T08:02:56.977Z,57.66
2022-11-06T08:07:48.711Z,59.02
2022-11-06T08:12:40.612Z,61.82
2022-11-06T08:17:32.385Z,58.26
2022-11-06T08:22:23.964Z,57.83
2022-11-06T08:27:15.683Z,58.59
2022-11-06T08:32:07.410Z,58.38
2022-11-06T08:36:59.157Z,57.75
2022-11-06T08:41:50.791Z,59.17
2022-11-06T08:46:45.340Z,58.86
2022-11-06T08:51:39.390Z,60.29
2022-11-06T08:56:31.037Z,59.22
2022-11-06T09:01:24.086Z,59.90
2022-11-06T09:06:15.947Z,59.26
2022-11-06T09:11:08.474Z,59.08
2022-11-06T09:16:00.979Z,59.05
2022-11-06T09:20:57.173Z,59.11
2022-11-06T09:25:49.122Z,59.62
2022-11-06T09:30:40.801Z,59.60
2022-11-06T09:35:34.280Z,60.92
2022-11-06T09:40:31.422Z,62.03
2022-11-06T09:45:26.721Z,62.73
2022-11-06T09:50:23.865Z,61.85
2022-11-06T09:55:29.247Z,61.59
2022-11-06T10:00:21.379Z,61.96
2022-11-06T10:05:31.608Z,62.01
2022-11-06T10:10:30.704Z,62.00
2022-11-06T10:15:56.787Z,62.88
2022-11-06T10:21:07.180Z,62.69
2022-11-06T10:26:12.105Z,61.10
2022-11-06T10:31:25.682Z,61.43
2022-11-06T10:36:39.945Z,60.93
2022-11-06T10:41:35.315Z,60.35
2022-11-06T10:46:30.114Z,60.59
2022-11-06T10:51:46.175Z,61.54
2022-11-06T10:57:04.144Z,61.43
2022-11-06T11:01:56.190Z,62.07
2022-11-06T11:06:49.086Z,62.18
2022-11-06T11:11:49.042Z,61.21
2022-11-06T11:16:45.793Z,62.04
2022-11-06T11:21:38.731Z,61.60
2022-11-06T11:26:33.898Z,60.83
2022-11-06T11:31:31.636Z,60.28
2022-11-06T11:36:23.335Z,60.52
2022-11-06T11:41:21.144Z,60.17
2022-11-06T11:46:20.790Z,59.64
2022-11-06T11:51:15.726Z,60.72
2022-11-06T11:56:13.534Z,60.34
2022-11-06T12:01:07.768Z,59.56
2022-11-06T12:06:25.879Z,58.82
2022-11-06T12:11:24.566Z,57.78
2022-11-06T12:16:20.090Z,56.48
2022-11-06T12:21:21.955Z,56.20
2022-11-06T12:26:28.782Z,56.32
2022-11-06T12:31:56.099Z,55.33
2022-11-06T12:37:04.163Z,54.15
2022-11-06T12:41:56.910Z,53.43
2022-11-06T12:47:08.059Z,53.73
2022-11-06T12:52:05.581Z,54.13
2022-11-06T12:57:15.877Z,54.38
2022-11-06T13:02:48.576Z,53.55
2022-11-06T13:07:55.556Z,54.11
2022-11-06T13:12:56.722Z,53.96
2022-11-06T13:18:03.666Z,53.62
2022-11-06T13:23:10.914Z,52.91
2022-11-06T13:28:05.481Z,52.99
2022-11-06T13:33:13.721Z,53.55
2022-11-06T13:38:15.484Z,53.91
2022-11-06T13:43:10.452Z,53.30
2022-11-06T13:48:18.407Z,53.29
2022-11-06T13:53:23.507Z,53.92
2022-11-06T13:59:06.592Z,54.36
2022-11-06T14:04:29.272Z,54.38
2022-11-06T14:09:26.166Z,54.35
2022-11-06T14:14:22.242Z,54.23
2022-11-06T14:19:26.595Z,54.47
2022-11-06T14:24:27.754Z,54.80
2022-11-06T14:29:28.665Z,53.91
2022-11-06T14:34:28.861Z,54.05
2022-11-06T14:39:55.347Z,53.64
2022-11-06T14:44:49.935Z,52.75
2022-11-06T14:49:46.373Z,53.11
2022-11-06T14:54:40.799Z,52.86
2022-11-06T14:59:38.529Z,53.01
2022-11-06T15:04:33.209Z,53.19
2022-11-06T15:09:24.810Z,53.80
2022-11-06T15:14:16.422Z,55.99
2022-11-06T15:19:19.536Z,58.63
2022-11-06T15:24:31.000Z,59.29
2022-11-06T15:29:26.350Z,59.96
2022-11-06T15:34:30.536Z,61.34
2022-11-06T15:39:30.680Z,63.91
2022-11-06T15:44:24.267Z,64.76
2022-11-06T15:49:19.405Z,63.98
2022-11-06T15:54:14.591Z,64.93
2022-11-06T15:59:14.732Z,65.49
2022-11-06T16:13:54.625Z,64.45
2022-11-06T16:18:49.277Z,64.89
2022-11-06T16:23:49.126Z,64.52
2022-11-06T16:28:47.859Z,63.11
2022-11-06T16:33:40.419Z,63.02
2022-11-06T16:38:42.505Z,62.71
2022-11-06T16:43:34.495Z,62.94
2022-11-06T16:48:31.616Z,63.11
2022-11-06T16:53:27.513Z,63.67
2022-11-06T16:58:20.366Z,63.05
2022-11-06T17:03:23.339Z,64.08
2022-11-06T17:08:18.073Z,64.43
2022-11-06T17:13:20.158Z,63.88
2022-11-06T17:18:16.401Z,64.30
2022-11-06T17:23:15.778Z,66.35
2022-11-06T17:28:10.931Z,66.62
2022-11-06T17:33:02.535Z,68.78
2022-11-06T17:37:54.152Z,69.70
2022-11-06T17:42:45.784Z,69.54
2022-11-06T17:47:37.467Z,68.03
2022-11-06T17:52:29.790Z,68.15
2022-11-06T17:57:24.218Z,67.77
2022-11-06T18:02:34.969Z,67.30
2022-11-06T18:07:29.359Z,67.30
2022-11-06T18:12:24.093Z,67.93
2022-11-06T18:17:15.749Z,68.75
2022-11-06T18:22:07.352Z,68.53
2022-11-06T18:26:59.176Z,67.92
2022-11-06T18:31:50.799Z,67.60
2022-11-06T18:36:42.555Z,67.09
2022-11-06T18:41:34.855Z,66.14
2022-11-06T18:46:27.749Z,65.56
2022-11-06T18:51:34.040Z,66.34
2022-11-06T18:56:26.823Z,65.92
2022-11-06T19:01:19.167Z,65.58
2022-11-06T19:06:14.330Z,63.62
2022-11-06T19:11:08.185Z,63.19
2022-11-06T19:16:00.313Z,62.75
2022-11-06T19:20:51.940Z,62.53
2022-11-06T19:25:43.647Z,62.57
2022-11-06T19:30:36.055Z,62.93
2022-11-06T19:35:27.860Z,62.92
2022-11-06T19:40:20.098Z,63.27
2022-11-06T19:45:12.443Z,63.30
2022-11-06T19:50:05.172Z,63.43
2022-11-06T19:55:25.660Z,63.64
2022-11-06T20:00:11.460Z,63.64
2022-11-06T20:05:03.461Z,64.15
2022-11-06T20:09:56.325Z,64.56
2022-11-06T20:14:48.918Z,65.23
2022-11-06T20:19:41.609Z,65.62
2022-11-06T20:24:34.567Z,65.16
2022-11-06T20:29:28.339Z,65.18
2022-11-06T20:34:20.006Z,65.17
2022-11-06T20:39:11.862Z,65.53
2022-11-06T20:44:04.113Z,65.74
2022-11-06T20:48:58.353Z,65.36
2022-11-06T20:53:50.528Z,65.51
2022-11-06T20:58:42.943Z,65.85
2022-11-06T21:03:36.307Z,66.44
2022-11-06T21:08:28.077Z,66.23
2022-11-06T21:13:19.735Z,66.70
2022-11-06T21:18:11.554Z,66.23
2022-11-06T21:23:04.960Z,66.95
2022-11-06T21:27:56.710Z,66.38
2022-11-06T21:32:48.297Z,67.05
2022-11-06T21:37:39.907Z,66.66
2022-11-06T21:42:31.499Z,66.85
2022-11-06T21:47:23.472Z,67.06
2022-11-06T21:52:33.687Z,67.37
2022-11-06T21:57:25.353Z,68.03
2022-11-06T22:02:17.018Z,68.91
2022-11-06T22:07:08.675Z,68.44
2022-11-06T22:12:02.091Z,68.27
2022-11-06T22:16:53.723Z,67.93
2022-11-06T22:21:45.470Z,67.89
2022-11-06T22:26:37.766Z,68.69
2022-11-06T22:31:30.255Z,69.00
2022-11-06T22:36:23.108Z,69.58
2022-11-06T22:41:17.441Z,70.71
2022-11-06T22:46:12.968Z,70.86
2022-11-06T22:51:07.214Z,71.11
2022-11-06T22:55:59.739Z,71.82
2022-11-06T23:00:52.697Z,72.63
2022-11-06T23:05:44.406Z,73.27
2022-11-06T23:10:39.369Z,73.89
2022-11-06T23:15:31.922Z,74.20
2022-11-06T23:20:27.379Z,73.25
2022-11-06T23:25:20.113Z,72.35
2022-11-06T23:30:12.771Z,71.47
2022-11-06T23:35:10.355Z,71.63
2022-11-06T23:40:05.499Z,72.84
2022-11-06T23:45:16.836Z,73.63
2022-11-06T23:50:09.057Z,74.58
2022-11-06T23:55:03.724Z,74.92
2022-11-06T23:59:55.424Z,75.38
